sensor_id;sensor_type;location;lat;lon;timestamp;temperature;humidity
55648;DHT22;45266;48.756;9.246;2023-08-12T00:01:03;18.70;99.90
55648;DHT22;45266;48.756;9.246;2023-08-12T00:02:13;18.60;99.90
55648;DHT22;45266;48.756;9.246;2023-08-12T00:03:24;18.60;99.90
55648;DHT22;45266;48.756;9.246;2023-08-12T00:04:32;18.60;99.90
55648;DHT22;45266;48.756;9.246;2023-08-12T00:05:41;18.60;99.90
55648;DHT22;45266;48.756;9.246;2023-08-12T00:06:51;18.60;99.90
55648;DHT22;45266;48.756;9.246;2023-08-12T00:07:59;18.70;99.90
55648;DHT22;45266;48.756;9.246;2023-08-12T00:09:09;18.70;99.90
55648;DHT22;45266;48.756;9.246;2023-08-12T00:10:23;18.70;99.90
55648;DHT22;45266;48.756;9.246;2023-08-12T00:11:31;18.70;99.90
55648;DHT22;45266;48.756;9.246;2023-08-12T00:12:42;18.70;99.90
55648;DHT22;45266;48.756;9.246;2023-08-12T00:13:53;18.60;99.90
55648;DHT22;45266;48.756;9.246;2023-08-12T00:15:03;18.70;99.90
55648;DHT22;45266;48.756;9.246;2023-08-12T00:16:15;18.60;99.90
55648;DHT22;45266;48.756;9.246;2023-08-12T00:17:25;18.60;99.90
55648;DHT22;45266;48.756;9.246;2023-08-12T00:18:37;18.60;99.90
55648;DHT22;45266;48.756;9.246;2023-08-12T00:20:08;18.60;99.90
55648;DHT22;45266;48.756;9.246;2023-08-12T00:21:17;18.50;99.90
55648;DHT22;45266;48.756;9.246;2023-08-12T00:22:31;18.50;99.90
55648;DHT22;45266;48.756;9.246;2023-08-12T00:23:47;18.60;99.90
55648;DHT22;45266;48.756;9.246;2023-08-12T00:25:01;18.50;99.90
55648;DHT22;45266;48.756;9.246;2023-08-12T00:26:13;18.50;99.90
55648;DHT22;45266;48.756;9.246;2023-08-12T00:27:25;18.50;99.90
55648;DHT22;45266;48.756;9.246;2023-08-12T00:28:36;18.50;99.90
55648;DHT22;45266;48.756;9.246;2023-08-12T00:29:46;18.50;99.90
55648;DHT22;45266;48.756;9.246;2023-08-12T00:30:56;18.50;99.90
55648;DHT22;45266;48.756;9.246;2023-08-12T00:32:07;18.40;99.90
55648;DHT22;45266;48.756;9.246;2023-08-12T00:33:16;18.40;99.90
55648;DHT22;45266;48.756;9.246;2023-08-12T00:34:23;18.40;99.90
55648;DHT22;45266;48.756;9.246;2023-08-12T00:35:29;18.40;99.90
55648;DHT22;45266;48.756;9.246;2023-08-12T00:36:35;18.40;99.90
55648;DHT22;45266;48.756;9.246;2023-08-12T00:37:41;18.40;99.90
55648;DHT22;45266;48.756;9.246;2023-08-12T00:38:48;18.40;99.90
55648;DHT22;45266;48.756;9.246;2023-08-12T00:39:55;18.40;99.90
55648;DHT22;45266;48.756;9.246;2023-08-12T00:41:01;18.40;99.90
55648;DHT22;45266;48.756;9.246;2023-08-12T00:42:06;18.40;99.90
55648;DHT22;45266;48.756;9.246;2023-08-12T00:43:12;18.40;99.90
55648;DHT22;45266;48.756;9.246;2023-08-12T00:44:19;18.40;99.90
55648;DHT22;45266;48.756;9.246;2023-08-12T00:45:28;18.40;99.90
55648;DHT22;45266;48.756;9.246;2023-08-12T00:46:40;18.40;99.90
55648;DHT22;45266;48.756;9.246;2023-08-12T00:47:49;18.40;99.90
55648;DHT22;45266;48.756;9.246;2023-08-12T00:48:56;18.40;99.90
55648;DHT22;45266;48.756;9.246;2023-08-12T00:50:03;18.40;99.90
55648;DHT22;45266;48.756;9.246;2023-08-12T00:51:09;18.40;99.90
55648;DHT22;45266;48.756;9.246;2023-08-12T00:52:16;18.40;99.90
55648;DHT22;45266;48.756;9.246;2023-08-12T00:53:23;18.40;99.90
55648;DHT22;45266;48.756;9.246;2023-08-12T00:54:29;18.40;99.90
55648;DHT22;45266;48.756;9.246;2023-08-12T00:55:35;18.30;99.90
55648;DHT22;45266;48.756;9.246;2023-08-12T00:56:42;18.30;99.90
55648;DHT22;45266;48.756;9.246;2023-08-12T00:57:50;18.40;99.90
55648;DHT22;45266;48.756;9.246;2023-08-12T00:58:58;18.30;99.90
55648;DHT22;45266;48.756;9.246;2023-08-12T01:00:05;18.30;99.90
55648;DHT22;45266;48.756;9.246;2023-08-12T01:01:13;18.30;99.90
55648;DHT22;45266;48.756;9.246;2023-08-12T01:02:20;18.30;99.90
55648;DHT22;45266;48.756;9.246;2023-08-12T01:03:26;18.30;99.90
55648;DHT22;45266;48.756;9.246;2023-08-12T01:04:33;18.30;99.90
55648;DHT22;45266;48.756;9.246;2023-08-12T01:05:40;18.20;99.90
55648;DHT22;45266;48.756;9.246;2023-08-12T01:06:46;18.20;99.90
55648;DHT22;45266;48.756;9.246;2023-08-12T01:07:52;18.20;99.90
55648;DHT22;45266;48.756;9.246;2023-08-12T01:08:58;18.20;99.90
55648;DHT22;45266;48.756;9.246;2023-08-12T01:10:04;18.30;99.90
55648;DHT22;45266;48.756;9.246;2023-08-12T01:12:54;18.20;99.90
55648;DHT22;45266;48.756;9.246;2023-08-12T01:15:24;18.10;99.90
55648;DHT22;45266;48.756;9.246;2023-08-12T01:16:35;18.10;99.90
55648;DHT22;45266;48.756;9.246;2023-08-12T01:17:43;18.10;99.90
55648;DHT22;45266;48.756;9.246;2023-08-12T01:18:50;18.10;99.90
55648;DHT22;45266;48.756;9.246;2023-08-12T01:19:57;18.10;99.90
55648;DHT22;45266;48.756;9.246;2023-08-12T01:21:07;18.10;99.90
55648;DHT22;45266;48.756;9.246;2023-08-12T01:22:16;18.00;99.90
55648;DHT22;45266;48.756;9.246;2023-08-12T01:23:27;18.10;99.90
55648;DHT22;45266;48.756;9.246;2023-08-12T01:24:42;18.00;99.90
55648;DHT22;45266;48.756;9.246;2023-08-12T01:25:53;18.00;99.90
55648;DHT22;45266;48.756;9.246;2023-08-12T01:27:03;18.00;99.90
55648;DHT22;45266;48.756;9.246;2023-08-12T01:28:10;18.10;99.90
55648;DHT22;45266;48.756;9.246;2023-08-12T01:29:16;18.00;99.90
55648;DHT22;45266;48.756;9.246;2023-08-12T01:30:23;18.00;99.90
55648;DHT22;45266;48.756;9.246;2023-08-12T01:31:39;18.00;99.90
55648;DHT22;45266;48.756;9.246;2023-08-12T01:34:44;18.00;99.90
55648;DHT22;45266;48.756;9.246;2023-08-12T01:36:11;18.00;99.90
55648;DHT22;45266;48.756;9.246;2023-08-12T01:37:26;18.00;99.90
55648;DHT22;45266;48.756;9.246;2023-08-12T01:38:36;18.00;99.90
55648;DHT22;45266;48.756;9.246;2023-08-12T01:39:49;18.00;99.90
55648;DHT22;45266;48.756;9.246;2023-08-12T01:40:57;17.90;99.90
55648;DHT22;45266;48.756;9.246;2023-08-12T01:42:08;17.90;99.90
55648;DHT22;45266;48.756;9.246;2023-08-12T01:43:18;17.90;99.90
55648;DHT22;45266;48.756;9.246;2023-08-12T01:44:26;17.90;99.90
55648;DHT22;45266;48.756;9.246;2023-08-12T01:45:35;17.90;99.90
55648;DHT22;45266;48.756;9.246;2023-08-12T01:46:45;17.90;99.90
55648;DHT22;45266;48.756;9.246;2023-08-12T01:47:51;17.90;99.90
55648;DHT22;45266;48.756;9.246;2023-08-12T01:48:56;18.00;99.90
55648;DHT22;45266;48.756;9.246;2023-08-12T01:50:02;17.90;99.90
55648;DHT22;45266;48.756;9.246;2023-08-12T01:51:08;17.90;99.90
55648;DHT22;45266;48.756;9.246;2023-08-12T01:52:14;17.80;99.90
55648;DHT22;45266;48.756;9.246;2023-08-12T01:53:21;17.80;99.90
55648;DHT22;45266;48.756;9.246;2023-08-12T01:54:27;17.80;99.90
55648;DHT22;45266;48.756;9.246;2023-08-12T01:55:38;17.80;99.90
55648;DHT22;45266;48.756;9.246;2023-08-12T01:56:47;17.80;99.90
55648;DHT22;45266;48.756;9.246;2023-08-12T01:57:55;17.80;99.90
55648;DHT22;45266;48.756;9.246;2023-08-12T01:59:03;17.80;99.90
55648;DHT22;45266;48.756;9.246;2023-08-12T02:00:11;17.80;99.90
55648;DHT22;45266;48.756;9.246;2023-08-12T02:01:16;17.80;99.90
55648;DHT22;45266;48.756;9.246;2023-08-12T02:02:22;17.80;99.90
55648;DHT22;45266;48.756;9.246;2023-08-12T02:03:27;17.80;99.90
55648;DHT22;45266;48.756;9.246;2023-08-12T02:04:33;17.80;99.90
55648;DHT22;45266;48.756;9.246;2023-08-12T02:05:39;17.80;99.90
55648;DHT22;45266;48.756;9.246;2023-08-12T02:06:46;17.80;99.90
55648;DHT22;45266;48.756;9.246;2023-08-12T02:07:52;17.80;99.90
55648;DHT22;45266;48.756;9.246;2023-08-12T02:08:58;17.80;99.90
55648;DHT22;45266;48.756;9.246;2023-08-12T02:10:03;17.80;99.90
55648;DHT22;45266;48.756;9.246;2023-08-12T02:11:09;17.80;99.90
55648;DHT22;45266;48.756;9.246;2023-08-12T02:12:14;17.80;99.90
55648;DHT22;45266;48.756;9.246;2023-08-12T02:13:20;17.70;99.90
55648;DHT22;45266;48.756;9.246;2023-08-12T02:14:26;17.80;99.90
55648;DHT22;45266;48.756;9.246;2023-08-12T02:15:31;17.80;99.90
55648;DHT22;45266;48.756;9.246;2023-08-12T02:16:37;17.80;99.90
55648;DHT22;45266;48.756;9.246;2023-08-12T02:17:43;17.80;99.90
55648;DHT22;45266;48.756;9.246;2023-08-12T02:18:49;17.80;99.90
55648;DHT22;45266;48.756;9.246;2023-08-12T02:19:54;17.80;99.90
55648;DHT22;45266;48.756;9.246;2023-08-12T02:21:00;17.80;99.90
55648;DHT22;45266;48.756;9.246;2023-08-12T02:22:05;17.80;99.90
55648;DHT22;45266;48.756;9.246;2023-08-12T02:23:11;17.80;99.90
55648;DHT22;45266;48.756;9.246;2023-08-12T02:24:16;17.80;99.90
55648;DHT22;45266;48.756;9.246;2023-08-12T02:25:22;17.90;99.90
55648;DHT22;45266;48.756;9.246;2023-08-12T02:26:27;17.90;99.90
55648;DHT22;45266;48.756;9.246;2023-08-12T02:27:33;17.90;99.90
55648;DHT22;45266;48.756;9.246;2023-08-12T02:28:38;17.90;99.90
55648;DHT22;45266;48.756;9.246;2023-08-12T02:29:44;17.90;99.90
55648;DHT22;45266;48.756;9.246;2023-08-12T02:30:50;18.00;99.90
55648;DHT22;45266;48.756;9.246;2023-08-12T02:31:56;17.90;99.90
55648;DHT22;45266;48.756;9.246;2023-08-12T02:33:01;18.00;99.90
55648;DHT22;45266;48.756;9.246;2023-08-12T02:34:07;18.00;99.90
55648;DHT22;45266;48.756;9.246;2023-08-12T02:35:17;18.00;99.90
55648;DHT22;45266;48.756;9.246;2023-08-12T02:36:26;18.00;99.90
55648;DHT22;45266;48.756;9.246;2023-08-12T02:37:35;18.00;99.90
55648;DHT22;45266;48.756;9.246;2023-08-12T02:38:43;18.00;99.90
55648;DHT22;45266;48.756;9.246;2023-08-12T02:39:52;18.00;99.90
55648;DHT22;45266;48.756;9.246;2023-08-12T02:40:59;18.10;99.90
55648;DHT22;45266;48.756;9.246;2023-08-12T02:42:04;18.10;99.90
55648;DHT22;45266;48.756;9.246;2023-08-12T02:43:10;18.10;99.90
55648;DHT22;45266;48.756;9.246;2023-08-12T02:44:16;18.10;99.90
55648;DHT22;45266;48.756;9.246;2023-08-12T02:45:22;18.10;99.90
55648;DHT22;45266;48.756;9.246;2023-08-12T02:46:27;18.10;99.90
55648;DHT22;45266;48.756;9.246;2023-08-12T02:47:32;18.10;99.90
55648;DHT22;45266;48.756;9.246;2023-08-12T02:48:36;18.10;99.90
55648;DHT22;45266;48.756;9.246;2023-08-12T02:49:42;18.10;99.90
55648;DHT22;45266;48.756;9.246;2023-08-12T02:50:48;18.10;99.90
55648;DHT22;45266;48.756;9.246;2023-08-12T02:51:54;18.10;99.90
55648;DHT22;45266;48.756;9.246;2023-08-12T02:53:00;18.10;99.90
55648;DHT22;45266;48.756;9.246;2023-08-12T02:54:07;18.10;99.90
55648;DHT22;45266;48.756;9.246;2023-08-12T02:55:13;18.10;99.90
55648;DHT22;45266;48.756;9.246;2023-08-12T02:56:20;18.10;99.90
55648;DHT22;45266;48.756;9.246;2023-08-12T02:57:26;18.10;99.90
55648;DHT22;45266;48.756;9.246;2023-08-12T02:58:31;18.10;99.90
55648;DHT22;45266;48.756;9.246;2023-08-12T02:59:36;18.10;99.90
55648;DHT22;45266;48.756;9.246;2023-08-12T03:00:42;18.10;99.90
55648;DHT22;45266;48.756;9.246;2023-08-12T03:01:51;18.10;99.90
55648;DHT22;45266;48.756;9.246;2023-08-12T03:02:57;18.10;99.90
55648;DHT22;45266;48.756;9.246;2023-08-12T03:04:03;18.10;99.90
55648;DHT22;45266;48.756;9.246;2023-08-12T03:05:09;18.10;99.90
55648;DHT22;45266;48.756;9.246;2023-08-12T03:06:15;18.10;99.90
55648;DHT22;45266;48.756;9.246;2023-08-12T03:07:20;18.00;99.90
55648;DHT22;45266;48.756;9.246;2023-08-12T03:08:26;18.10;99.90
55648;DHT22;45266;48.756;9.246;2023-08-12T03:09:31;18.10;99.90
55648;DHT22;45266;48.756;9.246;2023-08-12T03:10:37;18.10;99.90
55648;DHT22;45266;48.756;9.246;2023-08-12T03:11:43;18.10;99.90
55648;DHT22;45266;48.756;9.246;2023-08-12T03:12:48;18.10;99.90
55648;DHT22;45266;48.756;9.246;2023-08-12T03:13:54;18.10;99.90
55648;DHT22;45266;48.756;9.246;2023-08-12T03:14:59;18.10;99.90
55648;DHT22;45266;48.756;9.246;2023-08-12T03:16:04;18.10;99.90
55648;DHT22;45266;48.756;9.246;2023-08-12T03:17:10;18.10;99.90
55648;DHT22;45266;48.756;9.246;2023-08-12T03:18:16;18.10;99.90
55648;DHT22;45266;48.756;9.246;2023-08-12T03:19:22;18.10;99.90
55648;DHT22;45266;48.756;9.246;2023-08-12T03:20:27;18.10;99.90
55648;DHT22;45266;48.756;9.246;2023-08-12T03:21:38;18.10;99.90
55648;DHT22;45266;48.756;9.246;2023-08-12T03:22:45;18.10;99.90
55648;DHT22;45266;48.756;9.246;2023-08-12T03:23:51;18.10;99.90
55648;DHT22;45266;48.756;9.246;2023-08-12T03:24:57;18.10;99.90
55648;DHT22;45266;48.756;9.246;2023-08-12T03:26:03;18.10;99.90
55648;DHT22;45266;48.756;9.246;2023-08-12T03:27:08;18.20;99.90
55648;DHT22;45266;48.756;9.246;2023-08-12T03:28:15;18.20;99.90
55648;DHT22;45266;48.756;9.246;2023-08-12T03:29:20;18.20;99.90
55648;DHT22;45266;48.756;9.246;2023-08-12T03:30:26;18.20;99.90
55648;DHT22;45266;48.756;9.246;2023-08-12T03:31:31;18.20;99.90
55648;DHT22;45266;48.756;9.246;2023-08-12T03:32:37;18.20;99.90
55648;DHT22;45266;48.756;9.246;2023-08-12T03:33:43;18.20;99.90
55648;DHT22;45266;48.756;9.246;2023-08-12T03:34:49;18.30;99.90
55648;DHT22;45266;48.756;9.246;2023-08-12T03:35:55;18.20;99.90
55648;DHT22;45266;48.756;9.246;2023-08-12T03:37:00;18.30;99.90
55648;DHT22;45266;48.756;9.246;2023-08-12T03:38:06;18.20;99.90
55648;DHT22;45266;48.756;9.246;2023-08-12T03:39:12;18.30;99.90
55648;DHT22;45266;48.756;9.246;2023-08-12T03:40:18;18.30;99.90
55648;DHT22;45266;48.756;9.246;2023-08-12T03:41:25;18.30;99.90
55648;DHT22;45266;48.756;9.246;2023-08-12T03:42:32;18.30;99.90
55648;DHT22;45266;48.756;9.246;2023-08-12T03:43:37;18.30;99.90
55648;DHT22;45266;48.756;9.246;2023-08-12T03:44:44;18.30;99.90
55648;DHT22;45266;48.756;9.246;2023-08-12T03:45:50;18.30;99.90
55648;DHT22;45266;48.756;9.246;2023-08-12T03:46:56;18.30;99.90
55648;DHT22;45266;48.756;9.246;2023-08-12T03:48:02;18.30;99.90
55648;DHT22;45266;48.756;9.246;2023-08-12T03:49:07;18.30;99.90
55648;DHT22;45266;48.756;9.246;2023-08-12T03:50:10;18.30;99.90
55648;DHT22;45266;48.756;9.246;2023-08-12T03:51:16;18.30;99.90
55648;DHT22;45266;48.756;9.246;2023-08-12T03:52:22;18.30;99.90
55648;DHT22;45266;48.756;9.246;2023-08-12T03:53:27;18.30;99.90
55648;DHT22;45266;48.756;9.246;2023-08-12T03:54:32;18.30;99.90
55648;DHT22;45266;48.756;9.246;2023-08-12T03:55:36;18.30;99.90
55648;DHT22;45266;48.756;9.246;2023-08-12T03:56:40;18.30;99.90
55648;DHT22;45266;48.756;9.246;2023-08-12T03:57:45;18.30;99.90
55648;DHT22;45266;48.756;9.246;2023-08-12T03:58:51;18.30;99.90
55648;DHT22;45266;48.756;9.246;2023-08-12T03:59:55;18.30;99.90
55648;DHT22;45266;48.756;9.246;2023-08-12T04:01:01;18.30;99.90
55648;DHT22;45266;48.756;9.246;2023-08-12T04:02:07;18.30;99.90
55648;DHT22;45266;48.756;9.246;2023-08-12T04:03:13;18.30;99.90
55648;DHT22;45266;48.756;9.246;2023-08-12T04:04:19;18.30;99.90
55648;DHT22;45266;48.756;9.246;2023-08-12T04:05:25;18.30;99.90
55648;DHT22;45266;48.756;9.246;2023-08-12T04:06:31;18.30;99.90
55648;DHT22;45266;48.756;9.246;2023-08-12T04:07:37;18.30;99.90
55648;DHT22;45266;48.756;9.246;2023-08-12T04:08:43;18.40;99.90
55648;DHT22;45266;48.756;9.246;2023-08-12T04:09:48;18.30;99.90
55648;DHT22;45266;48.756;9.246;2023-08-12T04:10:54;18.30;99.90
55648;DHT22;45266;48.756;9.246;2023-08-12T04:11:59;18.30;99.90
55648;DHT22;45266;48.756;9.246;2023-08-12T04:13:06;18.30;99.90
55648;DHT22;45266;48.756;9.246;2023-08-12T04:14:12;18.30;99.90
55648;DHT22;45266;48.756;9.246;2023-08-12T04:15:17;18.40;99.90
55648;DHT22;45266;48.756;9.246;2023-08-12T04:16:24;18.40;99.90
55648;DHT22;45266;48.756;9.246;2023-08-12T04:17:29;18.40;99.90
55648;DHT22;45266;48.756;9.246;2023-08-12T04:18:34;18.40;99.90
55648;DHT22;45266;48.756;9.246;2023-08-12T04:19:39;18.40;99.90
55648;DHT22;45266;48.756;9.246;2023-08-12T04:20:49;18.40;99.90
55648;DHT22;45266;48.756;9.246;2023-08-12T04:21:55;18.40;99.90
55648;DHT22;45266;48.756;9.246;2023-08-12T04:23:01;18.40;99.90
55648;DHT22;45266;48.756;9.246;2023-08-12T04:24:07;18.40;99.90
55648;DHT22;45266;48.756;9.246;2023-08-12T04:25:13;18.40;99.90
55648;DHT22;45266;48.756;9.246;2023-08-12T04:26:18;18.40;99.90
55648;DHT22;45266;48.756;9.246;2023-08-12T04:27:24;18.50;99.90
55648;DHT22;45266;48.756;9.246;2023-08-12T04:28:29;18.40;99.90
55648;DHT22;45266;48.756;9.246;2023-08-12T04:29:35;18.40;99.90
55648;DHT22;45266;48.756;9.246;2023-08-12T04:30:45;18.40;99.90
55648;DHT22;45266;48.756;9.246;2023-08-12T04:31:51;18.50;99.90
55648;DHT22;45266;48.756;9.246;2023-08-12T04:32:58;18.50;99.90
55648;DHT22;45266;48.756;9.246;2023-08-12T04:34:04;18.50;99.90
55648;DHT22;45266;48.756;9.246;2023-08-12T04:35:09;18.50;99.90
55648;DHT22;45266;48.756;9.246;2023-08-12T04:36:15;18.40;99.90
55648;DHT22;45266;48.756;9.246;2023-08-12T04:37:20;18.40;99.90
55648;DHT22;45266;48.756;9.246;2023-08-12T04:38:26;18.40;99.90
55648;DHT22;45266;48.756;9.246;2023-08-12T04:39:32;18.40;99.90
55648;DHT22;45266;48.756;9.246;2023-08-12T04:40:41;18.40;99.90
55648;DHT22;45266;48.756;9.246;2023-08-12T04:41:47;18.50;99.90
55648;DHT22;45266;48.756;9.246;2023-08-12T04:42:53;18.50;99.90
55648;DHT22;45266;48.756;9.246;2023-08-12T04:43:59;18.50;99.90
55648;DHT22;45266;48.756;9.246;2023-08-12T04:45:05;18.50;99.90
55648;DHT22;45266;48.756;9.246;2023-08-12T04:46:10;18.50;99.90
55648;DHT22;45266;48.756;9.246;2023-08-12T04:47:16;18.50;99.90
55648;DHT22;45266;48.756;9.246;2023-08-12T04:48:22;18.50;99.90
55648;DHT22;45266;48.756;9.246;2023-08-12T04:49:27;18.60;99.90
55648;DHT22;45266;48.756;9.246;2023-08-12T04:50:33;18.60;99.90
55648;DHT22;45266;48.756;9.246;2023-08-12T04:51:39;18.60;99.90
55648;DHT22;45266;48.756;9.246;2023-08-12T04:52:45;18.60;99.90
55648;DHT22;45266;48.756;9.246;2023-08-12T04:53:50;18.60;99.90
55648;DHT22;45266;48.756;9.246;2023-08-12T04:54:56;18.60;99.90
55648;DHT22;45266;48.756;9.246;2023-08-12T04:56:01;18.60;99.90
55648;DHT22;45266;48.756;9.246;2023-08-12T04:57:09;18.60;99.90
55648;DHT22;45266;48.756;9.246;2023-08-12T04:58:15;18.60;99.90
55648;DHT22;45266;48.756;9.246;2023-08-12T04:59:20;18.60;99.90
55648;DHT22;45266;48.756;9.246;2023-08-12T05:00:27;18.70;99.90
55648;DHT22;45266;48.756;9.246;2023-08-12T05:01:33;18.70;99.90
55648;DHT22;45266;48.756;9.246;2023-08-12T05:02:46;18.70;99.90
55648;DHT22;45266;48.756;9.246;2023-08-12T05:03:51;18.70;99.90
55648;DHT22;45266;48.756;9.246;2023-08-12T05:04:57;18.70;99.90
55648;DHT22;45266;48.756;9.246;2023-08-12T05:06:05;18.70;99.90
55648;DHT22;45266;48.756;9.246;2023-08-12T05:07:11;18.60;99.90
55648;DHT22;45266;48.756;9.246;2023-08-12T05:08:18;18.60;99.90
55648;DHT22;45266;48.756;9.246;2023-08-12T05:09:25;18.60;99.90
55648;DHT22;45266;48.756;9.246;2023-08-12T05:10:31;18.60;99.90
55648;DHT22;45266;48.756;9.246;2023-08-12T05:11:36;18.60;99.90
55648;DHT22;45266;48.756;9.246;2023-08-12T05:12:43;18.60;99.90
55648;DHT22;45266;48.756;9.246;2023-08-12T05:13:50;18.70;99.90
55648;DHT22;45266;48.756;9.246;2023-08-12T05:14:57;18.70;99.90
55648;DHT22;45266;48.756;9.246;2023-08-12T05:16:05;18.70;99.90
55648;DHT22;45266;48.756;9.246;2023-08-12T05:17:11;18.70;99.90
55648;DHT22;45266;48.756;9.246;2023-08-12T05:18:16;18.70;99.90
55648;DHT22;45266;48.756;9.246;2023-08-12T05:19:21;18.70;99.90
55648;DHT22;45266;48.756;9.246;2023-08-12T05:20:28;18.70;99.90
55648;DHT22;45266;48.756;9.246;2023-08-12T05:21:34;18.70;99.90
55648;DHT22;45266;48.756;9.246;2023-08-12T05:22:40;18.70;99.90
55648;DHT22;45266;48.756;9.246;2023-08-12T05:23:48;18.80;99.90
55648;DHT22;45266;48.756;9.246;2023-08-12T05:24:57;18.80;99.90
55648;DHT22;45266;48.756;9.246;2023-08-12T05:26:06;18.80;99.90
55648;DHT22;45266;48.756;9.246;2023-08-12T05:27:12;18.90;99.90
55648;DHT22;45266;48.756;9.246;2023-08-12T05:28:18;18.90;99.90
55648;DHT22;45266;48.756;9.246;2023-08-12T05:29:25;19.00;99.90
55648;DHT22;45266;48.756;9.246;2023-08-12T05:30:31;19.10;99.90
55648;DHT22;45266;48.756;9.246;2023-08-12T05:31:39;19.10;99.90
55648;DHT22;45266;48.756;9.246;2023-08-12T05:32:48;19.10;99.90
55648;DHT22;45266;48.756;9.246;2023-08-12T05:33:57;19.10;99.90
55648;DHT22;45266;48.756;9.246;2023-08-12T05:35:07;19.10;99.90
55648;DHT22;45266;48.756;9.246;2023-08-12T05:36:14;19.20;99.90
55648;DHT22;45266;48.756;9.246;2023-08-12T05:37:21;19.20;99.90
55648;DHT22;45266;48.756;9.246;2023-08-12T05:38:27;19.20;99.90
55648;DHT22;45266;48.756;9.246;2023-08-12T05:39:34;19.20;99.90
55648;DHT22;45266;48.756;9.246;2023-08-12T05:40:42;19.20;99.90
55648;DHT22;45266;48.756;9.246;2023-08-12T05:41:50;19.20;99.90
55648;DHT22;45266;48.756;9.246;2023-08-12T05:42:58;19.20;99.90
55648;DHT22;45266;48.756;9.246;2023-08-12T05:44:05;19.20;99.90
55648;DHT22;45266;48.756;9.246;2023-08-12T05:45:10;19.30;99.90
55648;DHT22;45266;48.756;9.246;2023-08-12T05:46:16;19.30;99.90
55648;DHT22;45266;48.756;9.246;2023-08-12T05:47:24;19.30;99.90
55648;DHT22;45266;48.756;9.246;2023-08-12T05:48:29;19.30;99.90
55648;DHT22;45266;48.756;9.246;2023-08-12T05:49:35;19.30;99.90
55648;DHT22;45266;48.756;9.246;2023-08-12T05:50:41;19.30;99.90
55648;DHT22;45266;48.756;9.246;2023-08-12T05:51:48;19.40;99.90
55648;DHT22;45266;48.756;9.246;2023-08-12T05:52:56;19.40;99.90
55648;DHT22;45266;48.756;9.246;2023-08-12T05:54:04;19.40;99.90
55648;DHT22;45266;48.756;9.246;2023-08-12T05:55:12;19.40;99.90
55648;DHT22;45266;48.756;9.246;2023-08-12T05:56:18;19.50;99.90
55648;DHT22;45266;48.756;9.246;2023-08-12T05:57:24;19.50;99.90
55648;DHT22;45266;48.756;9.246;2023-08-12T05:58:31;19.50;99.90
55648;DHT22;45266;48.756;9.246;2023-08-12T05:59:38;19.60;99.90
55648;DHT22;45266;48.756;9.246;2023-08-12T06:00:45;19.60;99.90
55648;DHT22;45266;48.756;9.246;2023-08-12T06:01:51;19.60;99.90
55648;DHT22;45266;48.756;9.246;2023-08-12T06:02:56;19.70;99.90
55648;DHT22;45266;48.756;9.246;2023-08-12T06:04:01;19.70;99.90
55648;DHT22;45266;48.756;9.246;2023-08-12T06:05:07;19.80;99.90
55648;DHT22;45266;48.756;9.246;2023-08-12T06:06:12;19.90;99.90
55648;DHT22;45266;48.756;9.246;2023-08-12T06:07:18;19.90;99.90
55648;DHT22;45266;48.756;9.246;2023-08-12T06:08:23;19.90;99.90
55648;DHT22;45266;48.756;9.246;2023-08-12T06:09:28;19.90;99.90
55648;DHT22;45266;48.756;9.246;2023-08-12T06:10:34;19.90;99.90
55648;DHT22;45266;48.756;9.246;2023-08-12T06:11:42;19.90;99.90
55648;DHT22;45266;48.756;9.246;2023-08-12T06:12:48;19.90;99.90
55648;DHT22;45266;48.756;9.246;2023-08-12T06:13:54;20.00;99.90
55648;DHT22;45266;48.756;9.246;2023-08-12T06:15:00;20.00;99.90
55648;DHT22;45266;48.756;9.246;2023-08-12T06:16:07;20.00;99.90
55648;DHT22;45266;48.756;9.246;2023-08-12T06:17:14;20.00;99.90
55648;DHT22;45266;48.756;9.246;2023-08-12T06:18:20;20.00;99.90
55648;DHT22;45266;48.756;9.246;2023-08-12T06:19:27;20.10;99.90
55648;DHT22;45266;48.756;9.246;2023-08-12T06:20:33;20.10;99.90
55648;DHT22;45266;48.756;9.246;2023-08-12T06:21:39;20.10;99.90
55648;DHT22;45266;48.756;9.246;2023-08-12T06:22:45;20.10;99.90
55648;DHT22;45266;48.756;9.246;2023-08-12T06:23:50;20.10;99.90
55648;DHT22;45266;48.756;9.246;2023-08-12T06:24:56;20.10;99.90
55648;DHT22;45266;48.756;9.246;2023-08-12T06:26:01;20.10;99.90
55648;DHT22;45266;48.756;9.246;2023-08-12T06:27:07;20.20;99.90
55648;DHT22;45266;48.756;9.246;2023-08-12T06:28:14;20.20;99.90
55648;DHT22;45266;48.756;9.246;2023-08-12T06:29:20;20.20;99.90
55648;DHT22;45266;48.756;9.246;2023-08-12T06:30:25;20.20;99.90
55648;DHT22;45266;48.756;9.246;2023-08-12T06:31:31;20.20;99.90
55648;DHT22;45266;48.756;9.246;2023-08-12T06:32:38;20.30;99.90
55648;DHT22;45266;48.756;9.246;2023-08-12T06:33:46;20.30;99.90
55648;DHT22;45266;48.756;9.246;2023-08-12T06:34:55;20.30;99.90
55648;DHT22;45266;48.756;9.246;2023-08-12T06:35:59;20.30;99.90
55648;DHT22;45266;48.756;9.246;2023-08-12T06:37:09;20.30;99.90
55648;DHT22;45266;48.756;9.246;2023-08-12T06:38:17;20.30;99.90
55648;DHT22;45266;48.756;9.246;2023-08-12T06:39:25;20.30;99.90
55648;DHT22;45266;48.756;9.246;2023-08-12T06:40:34;20.40;99.90
55648;DHT22;45266;48.756;9.246;2023-08-12T06:41:46;20.50;99.90
55648;DHT22;45266;48.756;9.246;2023-08-12T06:42:55;20.50;99.90
55648;DHT22;45266;48.756;9.246;2023-08-12T06:44:04;20.50;99.90
55648;DHT22;45266;48.756;9.246;2023-08-12T06:45:11;20.50;99.90
55648;DHT22;45266;48.756;9.246;2023-08-12T06:46:18;20.50;99.90
55648;DHT22;45266;48.756;9.246;2023-08-12T06:47:26;20.50;99.90
55648;DHT22;45266;48.756;9.246;2023-08-12T06:48:35;20.50;99.90
55648;DHT22;45266;48.756;9.246;2023-08-12T06:49:41;20.60;99.90
55648;DHT22;45266;48.756;9.246;2023-08-12T06:50:54;20.60;99.90
55648;DHT22;45266;48.756;9.246;2023-08-12T06:52:02;20.70;99.90
55648;DHT22;45266;48.756;9.246;2023-08-12T06:53:12;20.80;99.90
55648;DHT22;45266;48.756;9.246;2023-08-12T06:54:25;20.80;99.90
55648;DHT22;45266;48.756;9.246;2023-08-12T06:55:34;20.90;99.90
55648;DHT22;45266;48.756;9.246;2023-08-12T06:56:42;21.00;99.90
55648;DHT22;45266;48.756;9.246;2023-08-12T06:57:53;21.10;99.90
55648;DHT22;45266;48.756;9.246;2023-08-12T06:59:03;21.10;99.90
55648;DHT22;45266;48.756;9.246;2023-08-12T07:00:15;21.20;99.90
55648;DHT22;45266;48.756;9.246;2023-08-12T07:01:24;21.30;99.90
55648;DHT22;45266;48.756;9.246;2023-08-12T07:02:36;21.40;99.90
55648;DHT22;45266;48.756;9.246;2023-08-12T07:03:44;21.60;99.90
55648;DHT22;45266;48.756;9.246;2023-08-12T07:04:58;21.70;99.90
55648;DHT22;45266;48.756;9.246;2023-08-12T07:06:14;21.80;99.90
55648;DHT22;45266;48.756;9.246;2023-08-12T07:07:24;22.00;99.90
55648;DHT22;45266;48.756;9.246;2023-08-12T07:08:33;22.10;99.90
55648;DHT22;45266;48.756;9.246;2023-08-12T07:09:43;22.20;99.90